sensor_id;sensor_type;location;lat;lon;timestamp;pressure;altitude;pressure_sealevel;temperature;humidity
28935;BME280;16044;52.726;-2.108;2022-07-09T00:01:42;102222.84;;;15.91;72.38
28935;BME280;16044;52.726;-2.108;2022-07-09T00:04:09;102229.16;;;15.91;72.31
28935;BME280;16044;52.726;-2.108;2022-07-09T00:06:36;102228.63;;;15.88;72.29
28935;BME280;16044;52.726;-2.108;2022-07-09T00:09:03;102233.09;;;15.81;72.61
28935;BME280;16044;52.726;-2.108;2022-07-09T00:11:30;102225.91;;;15.79;72.74
28935;BME280;16044;52.726;-2.108;2022-07-09T00:13:57;102230.16;;;15.82;72.39
28935;BME280;16044;52.726;-2.108;2022-07-09T00:16:24;102232.06;;;15.82;72.57
28935;BME280;16044;52.726;-2.108;2022-07-09T00:18:51;102233.78;;;15.83;72.48
28935;BME280;16044;52.726;-2.108;2022-07-09T00:21:18;102238.56;;;15.81;72.53
28935;BME280;16044;52.726;-2.108;2022-07-09T00:23:45;102237.19;;;15.76;72.93
28935;BME280;16044;52.726;-2.108;2022-07-09T00:26:12;102235.47;;;15.75;73.01
28935;BME280;16044;52.726;-2.108;2022-07-09T00:28:39;102233.75;;;15.74;72.91
28935;BME280;16044;52.726;-2.108;2022-07-09T00:31:06;102226.59;;;15.73;72.93
28935;BME280;16044;52.726;-2.108;2022-07-09T00:33:33;102231.19;;;15.73;72.79
28935;BME280;16044;52.726;-2.108;2022-07-09T00:36:00;102220.41;;;15.71;73.00
28935;BME280;16044;52.726;-2.108;2022-07-09T00:38:26;102221.13;;;15.73;73.06
28935;BME280;16044;52.726;-2.108;2022-07-09T00:40:53;102221.25;;;15.64;73.71
28935;BME280;16044;52.726;-2.108;2022-07-09T00:43:22;102225.03;;;15.71;73.55
28935;BME280;16044;52.726;-2.108;2022-07-09T00:45:49;102222.97;;;15.73;73.79
28935;BME280;16044;52.726;-2.108;2022-07-09T00:48:16;102221.81;;;15.75;73.69
28935;BME280;16044;52.726;-2.108;2022-07-09T00:50:44;102221.66;;;15.77;73.66
28935;BME280;16044;52.726;-2.108;2022-07-09T00:53:15;102228.59;;;15.71;74.08
28935;BME280;16044;52.726;-2.108;2022-07-09T00:55:47;102221.47;;;15.78;73.87
28935;BME280;16044;52.726;-2.108;2022-07-09T00:58:18;102211.22;;;15.81;73.66
28935;BME280;16044;52.726;-2.108;2022-07-09T01:00:46;102210.88;;;15.84;73.57
28935;BME280;16044;52.726;-2.108;2022-07-09T01:03:13;102209.69;;;15.86;73.45
28935;BME280;16044;52.726;-2.108;2022-07-09T01:05:40;102206.59;;;15.81;73.27
28935;BME280;16044;52.726;-2.108;2022-07-09T01:08:08;102207.81;;;15.78;73.27
28935;BME280;16044;52.726;-2.108;2022-07-09T01:10:35;102209.31;;;15.73;73.44
28935;BME280;16044;52.726;-2.108;2022-07-09T01:13:03;102202.44;;;15.69;73.42
28935;BME280;16044;52.726;-2.108;2022-07-09T01:15:31;102206.38;;;15.66;73.34
28935;BME280;16044;52.726;-2.108;2022-07-09T01:17:59;102209.63;;;15.62;73.22
28935;BME280;16044;52.726;-2.108;2022-07-09T01:20:26;102207.06;;;15.60;73.26
28935;BME280;16044;52.726;-2.108;2022-07-09T01:22:56;102200.19;;;15.48;73.70
28935;BME280;16044;52.726;-2.108;2022-07-09T01:25:31;102206.34;;;15.50;73.39
28935;BME280;16044;52.726;-2.108;2022-07-09T01:28:02;102203.59;;;15.42;73.84
28935;BME280;16044;52.726;-2.108;2022-07-09T01:30:34;102204.59;;;15.40;73.90
28935;BME280;16044;52.726;-2.108;2022-07-09T01:33:03;102195.72;;;15.38;73.97
28935;BME280;16044;52.726;-2.108;2022-07-09T01:35:30;102185.16;;;15.35;74.16
28935;BME280;16044;52.726;-2.108;2022-07-09T01:37:57;102184.28;;;15.35;73.96
28935;BME280;16044;52.726;-2.108;2022-07-09T01:40:24;102185.63;;;15.31;73.99
28935;BME280;16044;52.726;-2.108;2022-07-09T01:42:52;102176.56;;;15.30;73.85
28935;BME280;16044;52.726;-2.108;2022-07-09T01:45:20;102179.63;;;15.27;74.43
28935;BME280;16044;52.726;-2.108;2022-07-09T01:47:47;102180.00;;;15.32;74.24
28935;BME280;16044;52.726;-2.108;2022-07-09T01:50:14;102174.88;;;15.29;74.55
28935;BME280;16044;52.726;-2.108;2022-07-09T01:52:41;102176.56;;;15.30;74.59
28935;BME280;16044;52.726;-2.108;2022-07-09T01:55:08;102177.78;;;15.28;74.50
28935;BME280;16044;52.726;-2.108;2022-07-09T01:57:35;102168.03;;;15.25;74.73
28935;BME280;16044;52.726;-2.108;2022-07-09T02:00:03;102177.94;;;15.26;74.73
28935;BME280;16044;52.726;-2.108;2022-07-09T02:02:32;102169.75;;;15.26;74.43
28935;BME280;16044;52.726;-2.108;2022-07-09T02:04:58;102171.78;;;15.24;74.57
28935;BME280;16044;52.726;-2.108;2022-07-09T02:07:25;102171.78;;;15.24;74.26
28935;BME280;16044;52.726;-2.108;2022-07-09T02:09:52;102175.88;;;15.20;74.79
28935;BME280;16044;52.726;-2.108;2022-07-09T02:12:19;102173.31;;;15.18;74.88
28935;BME280;16044;52.726;-2.108;2022-07-09T02:14:46;102171.06;;;15.14;74.80
28935;BME280;16044;52.726;-2.108;2022-07-09T02:17:14;102182.66;;;15.16;74.92
28935;BME280;16044;52.726;-2.108;2022-07-09T02:19:41;102172.78;;;15.15;75.02
28935;BME280;16044;52.726;-2.108;2022-07-09T02:22:08;102183.03;;;15.21;74.79
28935;BME280;16044;52.726;-2.108;2022-07-09T02:24:35;102176.72;;;15.20;74.64
28935;BME280;16044;52.726;-2.108;2022-07-09T02:27:02;102181.16;;;15.21;75.10
28935;BME280;16044;52.726;-2.108;2022-07-09T02:29:29;102182.72;;;15.24;75.35
28935;BME280;16044;52.726;-2.108;2022-07-09T02:31:56;102183.09;;;15.29;75.09
28935;BME280;16044;52.726;-2.108;2022-07-09T02:34:24;102194.03;;;15.37;74.85
28935;BME280;16044;52.726;-2.108;2022-07-09T02:36:51;102193.34;;;15.44;74.86
28935;BME280;16044;52.726;-2.108;2022-07-09T02:39:18;102184.81;;;15.47;74.65
28935;BME280;16044;52.726;-2.108;2022-07-09T02:41:45;102183.47;;;15.51;74.47
28935;BME280;16044;52.726;-2.108;2022-07-09T02:44:12;102182.25;;;15.53;74.59
28935;BME280;16044;52.726;-2.108;2022-07-09T02:46:39;102174.75;;;15.55;74.46
28935;BME280;16044;52.726;-2.108;2022-07-09T02:49:06;102173.22;;;15.61;74.22
28935;BME280;16044;52.726;-2.108;2022-07-09T02:51:33;102164.16;;;15.60;74.53
28935;BME280;16044;52.726;-2.108;2022-07-09T02:54:00;102173.22;;;15.61;74.41
28935;BME280;16044;52.726;-2.108;2022-07-09T02:56:27;102167.06;;;15.59;74.84
28935;BME280;16044;52.726;-2.108;2022-07-09T02:58:54;102172.22;;;15.62;74.68
28935;BME280;16044;52.726;-2.108;2022-07-09T03:01:21;102171.34;;;15.70;74.62
28935;BME280;16044;52.726;-2.108;2022-07-09T03:03:48;102175.47;;;15.66;75.10
28935;BME280;16044;52.726;-2.108;2022-07-09T03:06:14;102169.31;;;15.72;75.02
28935;BME280;16044;52.726;-2.108;2022-07-09T03:08:42;102164.41;;;15.75;74.92
28935;BME280;16044;52.726;-2.108;2022-07-09T03:11:09;102154.81;;;15.79;75.08
28935;BME280;16044;52.726;-2.108;2022-07-09T03:13:36;102162.00;;;15.81;75.17
28935;BME280;16044;52.726;-2.108;2022-07-09T03:16:03;102161.66;;;15.84;75.25
28935;BME280;16044;52.726;-2.108;2022-07-09T03:18:31;102163.38;;;15.85;75.38
28935;BME280;16044;52.726;-2.108;2022-07-09T03:20:58;102163.53;;;15.91;74.95
28935;BME280;16044;52.726;-2.108;2022-07-09T03:23:25;102165.09;;;15.94;75.02
28935;BME280;16044;52.726;-2.108;2022-07-09T03:25:52;102159.78;;;15.92;75.30
28935;BME280;16044;52.726;-2.108;2022-07-09T03:28:19;102147.31;;;15.98;74.90
28935;BME280;16044;52.726;-2.108;2022-07-09T03:30:46;102157.53;;;16.04;74.80
28935;BME280;16044;52.726;-2.108;2022-07-09T03:33:13;102162.34;;;16.02;74.86
28935;BME280;16044;52.726;-2.108;2022-07-09T03:35:39;102165.59;;;16.06;74.83
28935;BME280;16044;52.726;-2.108;2022-07-09T03:38:06;102162.16;;;16.04;75.03
28935;BME280;16044;52.726;-2.108;2022-07-09T03:40:33;102160.78;;;16.08;74.99
28935;BME280;16044;52.726;-2.108;2022-07-09T03:43:00;102156.84;;;16.10;75.22
28935;BME280;16044;52.726;-2.108;2022-07-09T03:45:27;102161.31;;;16.11;74.98
28935;BME280;16044;52.726;-2.108;2022-07-09T03:47:54;102152.25;;;16.11;75.14
28935;BME280;16044;52.726;-2.108;2022-07-09T03:50:21;102157.19;;;16.15;75.01
28935;BME280;16044;52.726;-2.108;2022-07-09T03:52:48;102152.78;;;16.14;75.41
28935;BME280;16044;52.726;-2.108;2022-07-09T03:55:15;102157.38;;;16.14;75.73
28935;BME280;16044;52.726;-2.108;2022-07-09T03:57:42;102155.84;;;16.11;75.77
28935;BME280;16044;52.726;-2.108;2022-07-09T04:00:10;102168.84;;;16.09;75.87
28935;BME280;16044;52.726;-2.108;2022-07-09T04:02:37;102163.19;;;16.19;75.59
28935;BME280;16044;52.726;-2.108;2022-07-09T04:05:04;102159.59;;;16.18;75.77
28935;BME280;16044;52.726;-2.108;2022-07-09T04:07:31;102159.91;;;16.24;75.75
28935;BME280;16044;52.726;-2.108;2022-07-09T04:09:58;102159.59;;;16.18;75.98
28935;BME280;16044;52.726;-2.108;2022-07-09T04:12:25;102162.16;;;16.20;75.94
28935;BME280;16044;52.726;-2.108;2022-07-09T04:14:52;102169.66;;;16.18;76.25
28935;BME280;16044;52.726;-2.108;2022-07-09T04:17:19;102165.22;;;16.25;75.80
28935;BME280;16044;52.726;-2.108;2022-07-09T04:19:46;102162.66;;;16.24;76.01
28935;BME280;16044;52.726;-2.108;2022-07-09T04:22:13;102158.06;;;16.24;76.27
28935;BME280;16044;52.726;-2.108;2022-07-09T04:24:40;102164.38;;;16.25;76.36
28935;BME280;16044;52.726;-2.108;2022-07-09T04:27:06;102176.66;;;16.29;76.25
28935;BME280;16044;52.726;-2.108;2022-07-09T04:29:33;102165.88;;;16.27;76.26
28935;BME280;16044;52.726;-2.108;2022-07-09T04:32:00;102159.41;;;16.28;76.58
28935;BME280;16044;52.726;-2.108;2022-07-09T04:34:27;102168.47;;;16.29;76.68
28935;BME280;16044;52.726;-2.108;2022-07-09T04:36:54;102167.78;;;16.27;77.04
28935;BME280;16044;52.726;-2.108;2022-07-09T04:39:21;102153.75;;;16.30;76.82
28935;BME280;16044;52.726;-2.108;2022-07-09T04:41:51;102160.63;;;16.26;77.67
28935;BME280;16044;52.726;-2.108;2022-07-09T04:44:18;102166.91;;;16.34;77.38
28935;BME280;16044;52.726;-2.108;2022-07-09T04:46:45;102157.53;;;16.37;77.45
28935;BME280;16044;52.726;-2.108;2022-07-09T04:49:12;102157.16;;;16.40;77.65
28935;BME280;16044;52.726;-2.108;2022-07-09T04:51:39;102146.22;;;16.40;77.78
28935;BME280;16044;52.726;-2.108;2022-07-09T04:54:05;102147.94;;;16.41;78.18
28935;BME280;16044;52.726;-2.108;2022-07-09T04:56:32;102148.94;;;16.40;78.25
28935;BME280;16044;52.726;-2.108;2022-07-09T04:58:59;102159.22;;;16.38;78.89
28935;BME280;16044;52.726;-2.108;2022-07-09T05:01:29;102166.56;;;16.46;78.66
28935;BME280;16044;52.726;-2.108;2022-07-09T05:03:57;102166.03;;;16.42;78.96
28935;BME280;16044;52.726;-2.108;2022-07-09T05:06:24;102154.75;;;16.45;78.72
28935;BME280;16044;52.726;-2.108;2022-07-09T05:08:51;102156.94;;;16.50;78.82
28935;BME280;16044;52.726;-2.108;2022-07-09T05:11:18;102150.44;;;16.59;79.37
28935;BME280;16044;52.726;-2.108;2022-07-09T05:13:45;102153.16;;;16.59;80.04
28935;BME280;16044;52.726;-2.108;2022-07-09T05:16:15;102163.94;;;16.61;80.08
28935;BME280;16044;52.726;-2.108;2022-07-09T05:18:42;102170.09;;;16.63;79.84
28935;BME280;16044;52.726;-2.108;2022-07-09T05:21:09;102165.97;;;16.67;79.83
28935;BME280;16044;52.726;-2.108;2022-07-09T05:23:37;102175.06;;;16.67;79.97
28935;BME280;16044;52.726;-2.108;2022-07-09T05:26:04;102171.28;;;16.68;80.16
28935;BME280;16044;52.726;-2.108;2022-07-09T05:28:31;102170.94;;;16.71;79.98
28935;BME280;16044;52.726;-2.108;2022-07-09T05:30:58;102176.03;;;16.74;79.69
28935;BME280;16044;52.726;-2.108;2022-07-09T05:33:45;102174.84;;;16.77;79.91
28935;BME280;16044;52.726;-2.108;2022-07-09T05:36:16;102168.34;;;16.78;79.78
28935;BME280;16044;52.726;-2.108;2022-07-09T05:38:44;102175.19;;;16.74;80.32
28935;BME280;16044;52.726;-2.108;2022-07-09T05:41:12;102178.63;;;16.76;79.95
28935;BME280;16044;52.726;-2.108;2022-07-09T05:43:41;102179.44;;;16.76;79.92
28935;BME280;16044;52.726;-2.108;2022-07-09T05:46:08;102176.53;;;16.78;80.07
28935;BME280;16044;52.726;-2.108;2022-07-09T05:48:35;102175.03;;;16.84;80.04
28935;BME280;16044;52.726;-2.108;2022-07-09T05:51:03;102176.19;;;16.81;80.36
28935;BME280;16044;52.726;-2.108;2022-07-09T05:53:30;102176.91;;;16.83;80.41
28935;BME280;16044;52.726;-2.108;2022-07-09T05:55:57;102165.91;;;16.91;80.20
28935;BME280;16044;52.726;-2.108;2022-07-09T05:58:24;102164.84;;;17.01;80.05
28935;BME280;16044;52.726;-2.108;2022-07-09T06:00:51;102171.88;;;17.03;79.86
28935;BME280;16044;52.726;-2.108;2022-07-09T06:03:18;102166.88;;;17.07;79.61
28935;BME280;16044;52.726;-2.108;2022-07-09T06:05:45;102176.81;;;17.08;79.62
28935;BME280;16044;52.726;-2.108;2022-07-09T06:08:11;102169.09;;;17.11;79.37
28935;BME280;16044;52.726;-2.108;2022-07-09T06:10:38;102179.53;;;17.08;79.30
28935;BME280;16044;52.726;-2.108;2022-07-09T06:13:05;102181.56;;;17.14;78.84
28935;BME280;16044;52.726;-2.108;2022-07-09T06:15:33;102186.81;;;17.24;78.53
28935;BME280;16044;52.726;-2.108;2022-07-09T06:18:00;102180.16;;;17.18;78.76
28935;BME280;16044;52.726;-2.108;2022-07-09T06:20:27;102183.28;;;17.15;78.87
28935;BME280;16044;52.726;-2.108;2022-07-09T06:22:53;102186.19;;;17.13;78.78
28935;BME280;16044;52.726;-2.108;2022-07-09T06:25:20;102184.34;;;17.06;79.24
28935;BME280;16044;52.726;-2.108;2022-07-09T06:27:47;102189.84;;;17.06;78.62
28935;BME280;16044;52.726;-2.108;2022-07-09T06:30:14;102196.34;;;17.05;78.48
28935;BME280;16044;52.726;-2.108;2022-07-09T06:32:41;102194.97;;;17.01;78.55
28935;BME280;16044;52.726;-2.108;2022-07-09T06:35:08;102202.53;;;16.99;78.59
28935;BME280;16044;52.726;-2.108;2022-07-09T06:37:35;102203.75;;;16.96;78.53
28935;BME280;16044;52.726;-2.108;2022-07-09T06:40:03;102201.84;;;16.97;78.44
28935;BME280;16044;52.726;-2.108;2022-07-09T06:42:31;102201.84;;;16.97;77.98
28935;BME280;16044;52.726;-2.108;2022-07-09T06:45:01;102208.84;;;16.99;77.70
28935;BME280;16044;52.726;-2.108;2022-07-09T06:47:28;102212.75;;;17.05;77.29
28935;BME280;16044;52.726;-2.108;2022-07-09T06:49:55;102216.72;;;17.02;76.58
28935;BME280;16044;52.726;-2.108;2022-07-09T06:52:22;102215.53;;;16.97;76.70
28935;BME280;16044;52.726;-2.108;2022-07-09T06:54:48;102209.41;;;16.94;76.65
28935;BME280;16044;52.726;-2.108;2022-07-09T06:57:16;102216.59;;;16.79;77.44
28935;BME280;16044;52.726;-2.108;2022-07-09T06:59:43;102220.72;;;16.75;77.82
28935;BME280;16044;52.726;-2.108;2022-07-09T07:02:13;102228.81;;;16.60;78.83
28935;BME280;16044;52.726;-2.108;2022-07-09T07:04:42;102225.22;;;16.51;79.44
28935;BME280;16044;52.726;-2.108;2022-07-09T07:07:09;102227.47;;;16.40;79.40
28935;BME280;16044;52.726;-2.108;2022-07-09T07:09:36;102219.09;;;16.41;79.91
28935;BME280;16044;52.726;-2.108;2022-07-09T07:12:03;102224.88;;;16.46;79.78
28935;BME280;16044;52.726;-2.108;2022-07-09T07:14:30;102227.09;;;16.51;79.82
28935;BME280;16044;52.726;-2.108;2022-07-09T07:16:57;102230.66;;;16.68;79.35
28935;BME280;16044;52.726;-2.108;2022-07-09T07:19:24;102229.09;;;16.82;78.46
28935;BME280;16044;52.726;-2.108;2022-07-09T07:21:51;102229.25;;;16.97;77.96
28935;BME280;16044;52.726;-2.108;2022-07-09T07:24:18;102226.44;;;17.13;77.63
28935;BME280;16044;52.726;-2.108;2022-07-09T07:26:45;102222.66;;;17.22;76.24
28935;BME280;16044;52.726;-2.108;2022-07-09T07:29:12;102229.66;;;17.25;74.54
28935;BME280;16044;52.726;-2.108;2022-07-09T07:31:39;102227.66;;;17.10;74.58
28935;BME280;16044;52.726;-2.108;2022-07-09T07:34:06;102215.44;;;17.21;74.36
28935;BME280;16044;52.726;-2.108;2022-07-09T07:36:33;102218.56;;;17.49;74.24
28935;BME280;16044;52.726;-2.108;2022-07-09T07:39:01;102215.00;;;17.95;73.21
28935;BME280;16044;52.726;-2.108;2022-07-09T07:41:28;102215.41;;;18.30;70.78
28935;BME280;16044;52.726;-2.108;2022-07-09T07:43:55;102218.59;;;18.72;68.80
28935;BME280;16044;52.726;-2.108;2022-07-09T07:46:22;102225.06;;;18.94;68.11
28935;BME280;16044;52.726;-2.108;2022-07-09T07:48:49;102222.19;;;19.17;64.84
28935;BME280;16044;52.726;-2.108;2022-07-09T07:51:17;102220.41;;;19.09;65.11
28935;BME280;16044;52.726;-2.108;2022-07-09T07:53:43;102225.97;;;19.31;64.82
28935;BME280;16044;52.726;-2.108;2022-07-09T07:56:11;102222.34;;;19.45;63.16
28935;BME280;16044;52.726;-2.108;2022-07-09T07:58:38;102232.13;;;19.33;63.00
28935;BME280;16044;52.726;-2.108;2022-07-09T08:01:05;102215.00;;;19.31;62.50
28935;BME280;16044;52.726;-2.108;2022-07-09T08:03:32;102218.94;;;19.28;62.38
28935;BME280;16044;52.726;-2.108;2022-07-09T08:06:00;102216.69;;;19.17;62.38
28935;BME280;16044;52.726;-2.108;2022-07-09T08:08:27;102219.25;;;19.18;62.40
28935;BME280;16044;52.726;-2.108;2022-07-09T08:10:54;102223.44;;;19.14;61.85
28935;BME280;16044;52.726;-2.108;2022-07-09T08:13:21;102222.31;;;19.08;61.79
28935;BME280;16044;52.726;-2.108;2022-07-09T08:15:48;102221.28;;;19.09;62.67
28935;BME280;16044;52.726;-2.108;2022-07-09T08:18:15;102219.28;;;19.03;62.71
28935;BME280;16044;52.726;-2.108;2022-07-09T08:20:42;102222.13;;;19.10;62.32
28935;BME280;16044;52.726;-2.108;2022-07-09T08:23:09;102216.75;;;19.02;62.58
28935;BME280;16044;52.726;-2.108;2022-07-09T08:25:37;102213.13;;;19.01;62.15
28935;BME280;16044;52.726;-2.108;2022-07-09T08:28:04;102206.59;;;18.87;63.49
28935;BME280;16044;52.726;-2.108;2022-07-09T08:30:31;102214.00;;;19.02;63.28
28935;BME280;16044;52.726;-2.108;2022-07-09T08:32:58;102218.72;;;18.93;62.90
28935;BME280;16044;52.726;-2.108;2022-07-09T08:35:25;102209.06;;;18.97;62.24
28935;BME280;16044;52.726;-2.108;2022-07-09T08:37:53;102222.78;;;18.97;62.34
28935;BME280;16044;52.726;-2.108;2022-07-09T08:40:21;102214.38;;;18.99;62.19
28935;BME280;16044;52.726;-2.108;2022-07-09T08:42:49;102221.56;;;19.00;62.66
28935;BME280;16044;52.726;-2.108;2022-07-09T08:45:16;102212.25;;;19.16;62.00
28935;BME280;16044;52.726;-2.108;2022-07-09T08:47:45;102229.59;;;19.31;61.14
28935;BME280;16044;52.726;-2.108;2022-07-09T08:50:13;102214.88;;;19.39;59.12
28935;BME280;16044;52.726;-2.108;2022-07-09T08:52:41;102228.44;;;19.40;58.62
28935;BME280;16044;52.726;-2.108;2022-07-09T08:55:09;102229.28;;;19.41;57.97
28935;BME280;16044;52.726;-2.108;2022-07-09T08:57:37;102234.41;;;19.44;58.03
28935;BME280;16044;52.726;-2.108;2022-07-09T09:00:05;102227.81;;;19.60;58.16
28935;BME280;16044;52.726;-2.108;2022-07-09T09:02:37;102230.44;;;19.83;57.69
28935;BME280;16044;52.726;-2.108;2022-07-09T09:05:12;102224.13;;;20.11;56.57
28935;BME280;16044;52.726;-2.108;2022-07-09T09:07:40;102219.16;;;20.21;56.16
28935;BME280;16044;52.726;-2.108;2022-07-09T09:10:08;102222.66;;;20.36;55.68
28935;BME280;16044;52.726;-2.108;2022-07-09T09:12:47;102223.00;;;20.55;56.70
28935;BME280;16044;52.726;-2.108;2022-07-09T09:15:17;102227.44;;;20.49;55.39
28935;BME280;16044;52.726;-2.108;2022-07-09T09:17:45;102224.06;;;20.54;54.35
28935;BME280;16044;52.726;-2.108;2022-07-09T09:20:14;102219.00;;;20.57;55.10
28935;BME280;16044;52.726;-2.108;2022-07-09T09:22:48;102226.16;;;20.52;54.37
28935;BME280;16044;52.726;-2.108;2022-07-09T09:25:18;102228.16;;;20.36;55.54
28935;BME280;16044;52.726;-2.108;2022-07-09T09:27:56;102221.34;;;20.32;54.92
28935;BME280;16044;52.726;-2.108;2022-07-09T09:30:26;102225.53;;;20.28;53.86
28935;BME280;16044;52.726;-2.108;2022-07-09T09:33:02;102226.97;;;20.24;53.71
28935;BME280;16044;52.726;-2.108;2022-07-09T09:35:33;102221.84;;;20.42;54.48
28935;BME280;16044;52.726;-2.108;2022-07-09T09:38:00;102225.78;;;20.55;54.36
28935;BME280;16044;52.726;-2.108;2022-07-09T09:40:27;102225.97;;;20.81;54.35
28935;BME280;16044;52.726;-2.108;2022-07-09T09:42:55;102233.91;;;20.98;54.13
28935;BME280;16044;52.726;-2.108;2022-07-09T09:45:25;102229.91;;;21.07;53.41
28935;BME280;16044;52.726;-2.108;2022-07-09T09:47:53;102228.69;;;21.16;53.05
28935;BME280;16044;52.726;-2.108;2022-07-09T09:50:22;102218.16;;;21.27;51.30
28935;BME280;16044;52.726;-2.108;2022-07-09T09:52:51;102214.00;;;21.44;51.32
28935;BME280;16044;52.726;-2.108;2022-07-09T09:55:21;102218.28;;;21.53;50.87
28935;BME280;16044;52.726;-2.108;2022-07-09T09:57:49;102212.34;;;21.63;50.01
28935;BME280;16044;52.726;-2.108;2022-07-09T10:00:16;102215.16;;;21.76;51.39
28935;BME280;16044;52.726;-2.108;2022-07-09T10:02:45;102220.28;;;21.93;51.59
28935;BME280;16044;52.726;-2.108;2022-07-09T10:05:13;102229.63;;;21.98;50.93
28935;BME280;16044;52.726;-2.108;2022-07-09T10:07:41;102229.38;;;22.00;49.57
28935;BME280;16044;52.726;-2.108;2022-07-09T10:10:17;102227.28;;;22.09;49.29
28935;BME280;16044;52.726;-2.108;2022-07-09T10:12:45;102217.09;;;21.89;48.70
28935;BME280;16044;52.726;-2.108;2022-07-09T10:15:26;102218.75;;;21.90;49.27
28935;BME280;16044;52.726;-2.108;2022-07-09T10:17:54;102202.84;;;21.99;50.08
28935;BME280;16044;52.726;-2.108;2022-07-09T10:20:34;102205.41;;;22.14;50.28
28935;BME280;16044;52.726;-2.108;2022-07-09T10:23:23;102210.50;;;22.17;48.77
28935;BME280;16044;52.726;-2.108;2022-07-09T10:25:51;102214.59;;;22.28;48.73
28935;BME280;16044;52.726;-2.108;2022-07-09T10:28:22;102216.06;;;22.30;48.35
28935;BME280;16044;52.726;-2.108;2022-07-09T10:30:51;102221.81;;;22.42;48.68
28935;BME280;16044;52.726;-2.108;2022-07-09T10:33:32;102207.34;;;22.33;48.16
28935;BME280;16044;52.726;-2.108;2022-07-09T10:36:13;102215.84;;;22.45;47.69
28935;BME280;16044;52.726;-2.108;2022-07-09T10:38:53;102209.69;;;22.50;47.16
28935;BME280;16044;52.726;-2.108;2022-07-09T10:41:22;102203.06;;;22.51;47.21
28935;BME280;16044;52.726;-2.108;2022-07-09T10:43:51;102211.59;;;22.56;47.61
28935;BME280;16044;52.726;-2.108;2022-07-09T10:46:19;102210.75;;;22.42;46.57
28935;BME280;16044;52.726;-2.108;2022-07-09T10:48:46;102202.47;;;22.35;46.23
28935;BME280;16044;52.726;-2.108;2022-07-09T10:51:18;102215.66;;;22.40;47.45
28935;BME280;16044;52.726;-2.108;2022-07-09T10:53:46;102218.38;;;22.47;46.17
28935;BME280;16044;52.726;-2.108;2022-07-09T10:56:21;102202.44;;;22.49;45.78
28935;BME280;16044;52.726;-2.108;2022-07-09T10:58:49;102199.06;;;22.47;45.13
28935;BME280;16044;52.726;-2.108;2022-07-09T11:01:20;102208.59;;;22.51;44.29
28935;BME280;16044;52.726;-2.108;2022-07-09T11:03:50;102201.19;;;22.45;45.00
28935;BME280;16044;52.726;-2.108;2022-07-09T11:06:18;102202.22;;;22.57;45.88
28935;BME280;16044;52.726;-2.108;2022-07-09T11:08:45;102198.41;;;22.65;46.12
28935;BME280;16044;52.726;-2.108;2022-07-09T11:11:12;102199.03;;;22.67;46.21
28935;BME280;16044;52.726;-2.108;2022-07-09T11:13:51;102202.63;;;22.67;45.97
28935;BME280;16044;52.726;-2.108;2022-07-09T11:16:23;102209.63;;;22.70;44.89
28935;BME280;16044;52.726;-2.108;2022-07-09T11:18:51;102206.44;;;22.66;44.40
28935;BME280;16044;52.726;-2.108;2022-07-09T11:21:22;102207.94;;;22.69;43.24
28935;BME280;16044;52.726;-2.108;2022-07-09T11:23:52;102211.97;;;22.66;42.71
28935;BME280;16044;52.726;-2.108;2022-07-09T11:26:19;102202.19;;;22.77;43.91
28935;BME280;16044;52.726;-2.108;2022-07-09T11:28:47;102195.78;;;22.83;44.94
28935;BME280;16044;52.726;-2.108;2022-07-09T11:31:14;102207.03;;;22.95;45.14
28935;BME280;16044;52.726;-2.108;2022-07-09T11:33:43;102196.63;;;22.90;43.77
28935;BME280;16044;52.726;-2.108;2022-07-09T11:36:36;102213.63;;;22.94;42.86
28935;BME280;16044;52.726;-2.108;2022-07-09T11:39:04;102199.59;;;22.89;42.91
28935;BME280;16044;52.726;-2.108;2022-07-09T11:41:44;102199.84;;;22.81;43.76
28935;BME280;16044;52.726;-2.108;2022-07-09T11:44:52;102205.13;;;22.89;43.47
28935;BME280;16044;52.726;-2.108;2022-07-09T11:47:11;102202.34;;;22.95;43.34
28935;BME280;16044;52.726;-2.108;2022-07-09T11:49:44;102193.63;;;23.05;44.37
28935;BME280;16044;52.726;-2.108;2022-07-09T11:52:25;102205.06;;;23.15;44.01
28935;BME280;16044;52.726;-2.108;2022-07-09T11:55:02;102201.66;;;23.20;43.94
28935;BME280;16044;52.726;-2.108;2022-07-09T11:57:32;102200.75;;;23.33;44.27
28935;BME280;16044;52.726;-2.108;2022-07-09T12:00:05;102189.59;;;23.46;43.53
28935;BME280;16044;52.726;-2.108;2022-07-09T12:02:35;102194.25;;;23.52;43.56
28935;BME280;16044;52.726;-2.108;2022-07-09T12:05:07;102189.59;;;23.46;43.57
28935;BME280;16044;52.726;-2.108;2022-07-09T12:07:38;102188.34;;;23.42;42.63
28935;BME280;16044;52.726;-2.108;2022-07-09T12:10:07;102194.75;;;23.36;43.48
28935;BME280;16044;52.726;-2.108;2022-07-09T12:12:36;102192.66;;;23.31;43.91
28935;BME280;16044;52.726;-2.108;2022-07-09T12:15:04;102185.25;;;23.25;42.98
28935;BME280;16044;52.726;-2.108;2022-07-09T12:17:34;102187.97;;;23.32;43.28
28935;BME280;16044;52.726;-2.108;2022-07-09T12:20:02;102188.50;;;23.47;44.19
28935;BME280;16044;52.726;-2.108;2022-07-09T12:22:33;102186.66;;;23.41;44.17
28935;BME280;16044;52.726;-2.108;2022-07-09T12:25:00;102186.16;;;23.51;43.27
28935;BME280;16044;52.726;-2.108;2022-07-09T12:27:27;102179.72;;;23.57;42.37
28935;BME280;16044;52.726;-2.108;2022-07-09T12:29:54;102194.31;;;23.39;41.62
28935;BME280;16044;52.726;-2.108;2022-07-09T12:32:21;102185.59;;;23.42;42.61
28935;BME280;16044;52.726;-2.108;2022-07-09T12:34:48;102184.09;;;23.40;43.46
28935;BME280;16044;52.726;-2.108;2022-07-09T12:37:15;102178.97;;;23.43;42.75
28935;BME280;16044;52.726;-2.108;2022-07-09T12:39:42;102171.88;;;23.54;43.84
28935;BME280;16044;52.726;-2.108;2022-07-09T12:42:16;102178.00;;;23.63;44.52
28935;BME280;16044;52.726;-2.108;2022-07-09T12:44:44;102171.41;;;23.57;42.42
28935;BME280;16044;52.726;-2.108;2022-07-09T12:47:11;102172.53;;;23.49;42.51